sensor_id;sensor_type;location;lat;lon;timestamp;P1;durP1;ratioP1;P2;durP2;ratioP2
67063;SDS011;58476;48.072;11.970;2023-12-20T00:00:22;3.03;;;1.80;;
67063;SDS011;58476;48.072;11.970;2023-12-20T00:02:47;2.90;;;1.80;;
67063;SDS011;58476;48.072;11.970;2023-12-20T00:05:13;2.95;;;1.98;;
67063;SDS011;58476;48.072;11.970;2023-12-20T00:07:39;2.72;;;1.80;;
67063;SDS011;58476;48.072;11.970;2023-12-20T00:10:05;2.83;;;1.83;;
67063;SDS011;58476;48.072;11.970;2023-12-20T00:12:30;2.92;;;1.88;;
67063;SDS011;58476;48.072;11.970;2023-12-20T00:14:55;3.42;;;1.90;;
67063;SDS011;58476;48.072;11.970;2023-12-20T00:17:21;2.60;;;1.88;;
67063;SDS011;58476;48.072;11.970;2023-12-20T00:21:08;1.92;;;1.67;;
67063;SDS011;58476;48.072;11.970;2023-12-20T00:23:33;2.47;;;1.92;;
67063;SDS011;58476;48.072;11.970;2023-12-20T00:25:59;2.00;;;1.80;;
67063;SDS011;58476;48.072;11.970;2023-12-20T00:28:24;2.47;;;1.83;;
67063;SDS011;58476;48.072;11.970;2023-12-20T00:30:49;2.63;;;1.70;;
67063;SDS011;58476;48.072;11.970;2023-12-20T00:33:15;2.75;;;1.70;;
67063;SDS011;58476;48.072;11.970;2023-12-20T00:35:40;3.67;;;1.80;;
67063;SDS011;58476;48.072;11.970;2023-12-20T00:38:05;2.95;;;1.67;;
67063;SDS011;58476;48.072;11.970;2023-12-20T00:40:31;2.80;;;1.90;;
67063;SDS011;58476;48.072;11.970;2023-12-20T00:42:56;2.67;;;1.60;;
67063;SDS011;58476;48.072;11.970;2023-12-20T00:45:21;3.38;;;1.50;;
67063;SDS011;58476;48.072;11.970;2023-12-20T00:47:46;1.55;;;1.45;;
67063;SDS011;58476;48.072;11.970;2023-12-20T00:50:12;2.85;;;1.40;;
67063;SDS011;58476;48.072;11.970;2023-12-20T00:52:37;6.70;;;3.45;;
67063;SDS011;58476;48.072;11.970;2023-12-20T00:55:03;2.83;;;1.75;;
67063;SDS011;58476;48.072;11.970;2023-12-20T00:57:29;2.92;;;1.80;;
67063;SDS011;58476;48.072;11.970;2023-12-20T00:59:54;2.70;;;1.80;;
67063;SDS011;58476;48.072;11.970;2023-12-20T01:02:20;3.25;;;1.70;;
67063;SDS011;58476;48.072;11.970;2023-12-20T01:04:45;2.38;;;1.58;;
67063;SDS011;58476;48.072;11.970;2023-12-20T01:07:11;2.50;;;1.60;;
67063;SDS011;58476;48.072;11.970;2023-12-20T01:09:36;2.55;;;1.63;;
67063;SDS011;58476;48.072;11.970;2023-12-20T01:12:01;2.00;;;1.70;;
67063;SDS011;58476;48.072;11.970;2023-12-20T01:14:27;2.88;;;1.67;;
67063;SDS011;58476;48.072;11.970;2023-12-20T01:16:52;2.28;;;1.70;;
67063;SDS011;58476;48.072;11.970;2023-12-20T01:19:17;2.72;;;1.80;;
67063;SDS011;58476;48.072;11.970;2023-12-20T01:21:43;1.95;;;1.60;;
67063;SDS011;58476;48.072;11.970;2023-12-20T01:24:08;4.18;;;1.90;;
67063;SDS011;58476;48.072;11.970;2023-12-20T01:26:33;2.22;;;1.50;;
67063;SDS011;58476;48.072;11.970;2023-12-20T01:28:59;2.85;;;1.70;;
67063;SDS011;58476;48.072;11.970;2023-12-20T01:31:24;2.45;;;1.70;;
67063;SDS011;58476;48.072;11.970;2023-12-20T01:33:49;2.60;;;1.70;;
67063;SDS011;58476;48.072;11.970;2023-12-20T01:36:14;3.35;;;1.83;;
67063;SDS011;58476;48.072;11.970;2023-12-20T01:38:40;2.30;;;1.70;;
67063;SDS011;58476;48.072;11.970;2023-12-20T01:41:05;2.83;;;1.85;;
67063;SDS011;58476;48.072;11.970;2023-12-20T01:43:30;3.50;;;1.80;;
67063;SDS011;58476;48.072;11.970;2023-12-20T01:45:57;1.70;;;1.58;;
67063;SDS011;58476;48.072;11.970;2023-12-20T01:48:23;1.77;;;1.38;;
67063;SDS011;58476;48.072;11.970;2023-12-20T01:50:49;3.67;;;1.70;;
67063;SDS011;58476;48.072;11.970;2023-12-20T01:53:16;3.40;;;1.77;;
67063;SDS011;58476;48.072;11.970;2023-12-20T01:55:42;2.08;;;1.75;;
67063;SDS011;58476;48.072;11.970;2023-12-20T01:58:08;2.80;;;1.90;;
67063;SDS011;58476;48.072;11.970;2023-12-20T02:00:35;1.88;;;1.65;;
67063;SDS011;58476;48.072;11.970;2023-12-20T02:03:01;3.10;;;1.83;;
67063;SDS011;58476;48.072;11.970;2023-12-20T02:05:28;3.10;;;1.55;;
67063;SDS011;58476;48.072;11.970;2023-12-20T02:07:54;2.03;;;1.58;;
67063;SDS011;58476;48.072;11.970;2023-12-20T02:10:20;4.38;;;1.70;;
67063;SDS011;58476;48.072;11.970;2023-12-20T02:12:46;2.65;;;1.50;;
67063;SDS011;58476;48.072;11.970;2023-12-20T02:15:11;3.22;;;1.70;;
67063;SDS011;58476;48.072;11.970;2023-12-20T02:17:37;2.50;;;1.67;;
67063;SDS011;58476;48.072;11.970;2023-12-20T02:20:04;3.22;;;1.88;;
67063;SDS011;58476;48.072;11.970;2023-12-20T02:22:30;2.80;;;1.70;;
67063;SDS011;58476;48.072;11.970;2023-12-20T02:24:55;2.15;;;1.60;;
67063;SDS011;58476;48.072;11.970;2023-12-20T02:27:20;1.90;;;1.60;;
67063;SDS011;58476;48.072;11.970;2023-12-20T02:29:48;2.00;;;1.60;;
67063;SDS011;58476;48.072;11.970;2023-12-20T02:32:14;1.63;;;1.42;;
67063;SDS011;58476;48.072;11.970;2023-12-20T02:34:40;2.88;;;1.60;;
67063;SDS011;58476;48.072;11.970;2023-12-20T02:37:05;2.78;;;1.77;;
67063;SDS011;58476;48.072;11.970;2023-12-20T02:39:30;2.72;;;1.65;;
67063;SDS011;58476;48.072;11.970;2023-12-20T02:41:56;2.85;;;1.50;;
67063;SDS011;58476;48.072;11.970;2023-12-20T02:44:21;2.28;;;1.63;;
67063;SDS011;58476;48.072;11.970;2023-12-20T02:46:46;2.47;;;1.70;;
67063;SDS011;58476;48.072;11.970;2023-12-20T02:49:12;1.77;;;1.40;;
67063;SDS011;58476;48.072;11.970;2023-12-20T02:51:37;1.80;;;1.50;;
67063;SDS011;58476;48.072;11.970;2023-12-20T02:54:02;1.70;;;1.60;;
67063;SDS011;58476;48.072;11.970;2023-12-20T02:56:28;2.53;;;1.70;;
67063;SDS011;58476;48.072;11.970;2023-12-20T02:58:53;3.20;;;1.73;;
67063;SDS011;58476;48.072;11.970;2023-12-20T03:01:18;2.08;;;1.70;;
67063;SDS011;58476;48.072;11.970;2023-12-20T03:03:44;2.30;;;1.63;;
67063;SDS011;58476;48.072;11.970;2023-12-20T03:06:09;2.47;;;1.65;;
67063;SDS011;58476;48.072;11.970;2023-12-20T03:08:34;1.63;;;1.52;;
67063;SDS011;58476;48.072;11.970;2023-12-20T03:10:59;2.58;;;1.70;;
67063;SDS011;58476;48.072;11.970;2023-12-20T03:13:25;3.63;;;1.75;;
67063;SDS011;58476;48.072;11.970;2023-12-20T03:15:50;1.88;;;1.60;;
67063;SDS011;58476;48.072;11.970;2023-12-20T03:18:16;1.83;;;1.50;;
67063;SDS011;58476;48.072;11.970;2023-12-20T03:20:41;1.70;;;1.50;;
67063;SDS011;58476;48.072;11.970;2023-12-20T03:23:06;1.50;;;1.40;;
67063;SDS011;58476;48.072;11.970;2023-12-20T03:25:31;2.95;;;1.73;;
67063;SDS011;58476;48.072;11.970;2023-12-20T03:27:57;1.98;;;1.65;;
67063;SDS011;58476;48.072;11.970;2023-12-20T03:30:22;2.38;;;1.65;;
67063;SDS011;58476;48.072;11.970;2023-12-20T03:32:47;1.73;;;1.45;;
67063;SDS011;58476;48.072;11.970;2023-12-20T03:35:13;3.20;;;1.63;;
67063;SDS011;58476;48.072;11.970;2023-12-20T03:37:38;1.50;;;1.40;;
67063;SDS011;58476;48.072;11.970;2023-12-20T03:40:03;2.60;;;1.80;;
67063;SDS011;58476;48.072;11.970;2023-12-20T03:42:29;2.20;;;1.70;;
67063;SDS011;58476;48.072;11.970;2023-12-20T03:44:54;2.90;;;1.50;;
67063;SDS011;58476;48.072;11.970;2023-12-20T03:47:20;1.60;;;1.40;;
67063;SDS011;58476;48.072;11.970;2023-12-20T03:49:45;2.03;;;1.45;;
67063;SDS011;58476;48.072;11.970;2023-12-20T03:52:10;1.50;;;1.40;;
67063;SDS011;58476;48.072;11.970;2023-12-20T03:54:36;1.75;;;1.50;;
67063;SDS011;58476;48.072;11.970;2023-12-20T03:57:01;2.15;;;1.55;;
67063;SDS011;58476;48.072;11.970;2023-12-20T03:59:26;2.20;;;1.40;;
67063;SDS011;58476;48.072;11.970;2023-12-20T04:01:52;2.28;;;1.60;;
67063;SDS011;58476;48.072;11.970;2023-12-20T04:04:17;2.17;;;1.63;;
67063;SDS011;58476;48.072;11.970;2023-12-20T04:06:43;2.22;;;1.40;;
67063;SDS011;58476;48.072;11.970;2023-12-20T04:09:08;1.67;;;1.40;;
67063;SDS011;58476;48.072;11.970;2023-12-20T04:11:33;1.70;;;1.52;;
67063;SDS011;58476;48.072;11.970;2023-12-20T04:13:58;2.22;;;1.50;;
67063;SDS011;58476;48.072;11.970;2023-12-20T04:16:24;2.20;;;1.60;;
67063;SDS011;58476;48.072;11.970;2023-12-20T04:18:49;2.28;;;1.52;;
67063;SDS011;58476;48.072;11.970;2023-12-20T04:21:14;3.03;;;1.40;;
67063;SDS011;58476;48.072;11.970;2023-12-20T04:23:40;1.50;;;1.30;;
67063;SDS011;58476;48.072;11.970;2023-12-20T04:26:05;3.08;;;1.77;;
67063;SDS011;58476;48.072;11.970;2023-12-20T04:28:30;4.22;;;1.58;;
67063;SDS011;58476;48.072;11.970;2023-12-20T04:30:56;2.78;;;1.55;;
67063;SDS011;58476;48.072;11.970;2023-12-20T04:33:21;1.38;;;1.15;;
67063;SDS011;58476;48.072;11.970;2023-12-20T04:35:46;1.60;;;1.45;;
67063;SDS011;58476;48.072;11.970;2023-12-20T04:38:12;2.38;;;1.73;;
67063;SDS011;58476;48.072;11.970;2023-12-20T04:40:37;1.73;;;1.42;;
67063;SDS011;58476;48.072;11.970;2023-12-20T04:43:02;1.45;;;1.35;;
67063;SDS011;58476;48.072;11.970;2023-12-20T04:45:28;1.95;;;1.40;;
67063;SDS011;58476;48.072;11.970;2023-12-20T04:47:54;2.55;;;1.40;;
67063;SDS011;58476;48.072;11.970;2023-12-20T04:50:20;3.80;;;1.40;;
67063;SDS011;58476;48.072;11.970;2023-12-20T04:52:45;1.90;;;1.35;;
67063;SDS011;58476;48.072;11.970;2023-12-20T04:55:11;1.95;;;1.58;;
67063;SDS011;58476;48.072;11.970;2023-12-20T04:57:36;2.53;;;1.70;;
67063;SDS011;58476;48.072;11.970;2023-12-20T05:00:01;2.13;;;1.40;;
67063;SDS011;58476;48.072;11.970;2023-12-20T05:02:27;1.95;;;1.33;;
67063;SDS011;58476;48.072;11.970;2023-12-20T05:04:52;3.72;;;1.48;;
67063;SDS011;58476;48.072;11.970;2023-12-20T05:07:17;1.60;;;1.48;;
67063;SDS011;58476;48.072;11.970;2023-12-20T05:09:43;3.92;;;1.50;;
67063;SDS011;58476;48.072;11.970;2023-12-20T05:12:08;1.40;;;1.30;;
67063;SDS011;58476;48.072;11.970;2023-12-20T05:14:33;2.17;;;1.40;;
67063;SDS011;58476;48.072;11.970;2023-12-20T05:16:59;5.43;;;1.40;;
67063;SDS011;58476;48.072;11.970;2023-12-20T05:19:24;7.03;;;1.50;;
67063;SDS011;58476;48.072;11.970;2023-12-20T05:21:49;6.55;;;1.40;;
67063;SDS011;58476;48.072;11.970;2023-12-20T05:24:15;13.48;;;1.77;;
67063;SDS011;58476;48.072;11.970;2023-12-20T05:26:40;8.35;;;1.40;;
67063;SDS011;58476;48.072;11.970;2023-12-20T05:29:06;2.33;;;1.48;;
67063;SDS011;58476;48.072;11.970;2023-12-20T05:31:31;2.85;;;1.60;;
67063;SDS011;58476;48.072;11.970;2023-12-20T05:33:57;8.65;;;1.50;;
67063;SDS011;58476;48.072;11.970;2023-12-20T05:36:22;6.38;;;1.73;;
67063;SDS011;58476;48.072;11.970;2023-12-20T05:38:47;2.53;;;1.40;;
67063;SDS011;58476;48.072;11.970;2023-12-20T05:41:13;5.78;;;1.55;;
67063;SDS011;58476;48.072;11.970;2023-12-20T05:43:38;3.13;;;1.25;;
67063;SDS011;58476;48.072;11.970;2023-12-20T05:46:04;8.57;;;1.60;;
67063;SDS011;58476;48.072;11.970;2023-12-20T05:48:29;7.03;;;1.52;;
67063;SDS011;58476;48.072;11.970;2023-12-20T05:50:54;2.80;;;1.40;;
67063;SDS011;58476;48.072;11.970;2023-12-20T05:53:20;10.13;;;2.65;;
67063;SDS011;58476;48.072;11.970;2023-12-20T05:55:45;3.50;;;2.22;;
67063;SDS011;58476;48.072;11.970;2023-12-20T05:58:10;3.90;;;1.60;;
67063;SDS011;58476;48.072;11.970;2023-12-20T06:00:36;8.02;;;1.50;;
67063;SDS011;58476;48.072;11.970;2023-12-20T06:03:01;5.10;;;1.45;;
67063;SDS011;58476;48.072;11.970;2023-12-20T06:05:26;7.13;;;1.60;;
67063;SDS011;58476;48.072;11.970;2023-12-20T06:07:52;5.25;;;1.63;;
67063;SDS011;58476;48.072;11.970;2023-12-20T06:10:17;25.13;;;6.53;;
67063;SDS011;58476;48.072;11.970;2023-12-20T06:12:43;19.60;;;4.78;;
67063;SDS011;58476;48.072;11.970;2023-12-20T06:15:08;10.27;;;2.20;;
67063;SDS011;58476;48.072;11.970;2023-12-20T06:17:34;15.25;;;3.30;;
67063;SDS011;58476;48.072;11.970;2023-12-20T06:19:59;11.35;;;2.30;;
67063;SDS011;58476;48.072;11.970;2023-12-20T06:22:24;11.45;;;2.60;;
67063;SDS011;58476;48.072;11.970;2023-12-20T06:24:49;10.82;;;2.25;;
67063;SDS011;58476;48.072;11.970;2023-12-20T06:27:15;6.28;;;2.00;;
67063;SDS011;58476;48.072;11.970;2023-12-20T06:29:40;6.63;;;1.48;;
67063;SDS011;58476;48.072;11.970;2023-12-20T06:32:05;3.90;;;1.70;;
67063;SDS011;58476;48.072;11.970;2023-12-20T06:34:31;6.13;;;1.92;;
67063;SDS011;58476;48.072;11.970;2023-12-20T06:36:56;5.80;;;1.58;;
67063;SDS011;58476;48.072;11.970;2023-12-20T06:39:21;5.18;;;1.50;;
67063;SDS011;58476;48.072;11.970;2023-12-20T06:41:46;7.90;;;1.73;;
67063;SDS011;58476;48.072;11.970;2023-12-20T06:44:12;17.48;;;1.60;;
67063;SDS011;58476;48.072;11.970;2023-12-20T06:46:37;6.68;;;1.38;;
67063;SDS011;58476;48.072;11.970;2023-12-20T06:49:02;4.82;;;1.40;;
67063;SDS011;58476;48.072;11.970;2023-12-20T06:51:28;5.28;;;1.40;;
67063;SDS011;58476;48.072;11.970;2023-12-20T06:53:53;3.35;;;1.10;;
67063;SDS011;58476;48.072;11.970;2023-12-20T06:56:18;8.60;;;1.40;;
67063;SDS011;58476;48.072;11.970;2023-12-20T06:58:44;5.72;;;1.30;;
67063;SDS011;58476;48.072;11.970;2023-12-20T07:01:13;2.40;;;1.10;;
67063;SDS011;58476;48.072;11.970;2023-12-20T07:03:39;6.63;;;1.40;;
67063;SDS011;58476;48.072;11.970;2023-12-20T07:06:04;8.18;;;1.17;;
67063;SDS011;58476;48.072;11.970;2023-12-20T07:08:30;5.32;;;1.10;;
67063;SDS011;58476;48.072;11.970;2023-12-20T07:10:55;2.80;;;1.13;;
67063;SDS011;58476;48.072;11.970;2023-12-20T07:13:20;5.20;;;1.92;;
67063;SDS011;58476;48.072;11.970;2023-12-20T07:15:46;5.68;;;2.33;;
67063;SDS011;58476;48.072;11.970;2023-12-20T07:18:11;6.45;;;1.45;;
67063;SDS011;58476;48.072;11.970;2023-12-20T07:20:36;12.10;;;1.77;;
67063;SDS011;58476;48.072;11.970;2023-12-20T07:23:02;3.67;;;0.95;;
67063;SDS011;58476;48.072;11.970;2023-12-20T07:25:27;3.58;;;1.30;;
67063;SDS011;58476;48.072;11.970;2023-12-20T07:27:52;5.90;;;1.30;;
67063;SDS011;58476;48.072;11.970;2023-12-20T07:30:18;6.75;;;1.60;;
67063;SDS011;58476;48.072;11.970;2023-12-20T07:32:43;6.70;;;1.08;;
67063;SDS011;58476;48.072;11.970;2023-12-20T07:35:09;5.28;;;1.30;;
67063;SDS011;58476;48.072;11.970;2023-12-20T07:37:34;6.80;;;1.10;;
67063;SDS011;58476;48.072;11.970;2023-12-20T07:39:59;2.55;;;1.00;;
67063;SDS011;58476;48.072;11.970;2023-12-20T07:42:25;4.60;;;1.05;;
67063;SDS011;58476;48.072;11.970;2023-12-20T07:44:50;6.68;;;1.23;;
67063;SDS011;58476;48.072;11.970;2023-12-20T07:47:15;4.82;;;1.00;;
67063;SDS011;58476;48.072;11.970;2023-12-20T07:49:40;2.17;;;1.10;;
67063;SDS011;58476;48.072;11.970;2023-12-20T07:52:06;6.63;;;1.17;;
67063;SDS011;58476;48.072;11.970;2023-12-20T07:54:31;3.15;;;0.90;;
67063;SDS011;58476;48.072;11.970;2023-12-20T07:56:57;2.60;;;1.63;;
67063;SDS011;58476;48.072;11.970;2023-12-20T07:59:22;9.48;;;1.10;;
67063;SDS011;58476;48.072;11.970;2023-12-20T08:01:47;4.70;;;1.20;;
67063;SDS011;58476;48.072;11.970;2023-12-20T08:04:13;2.35;;;1.00;;
67063;SDS011;58476;48.072;11.970;2023-12-20T08:06:38;6.00;;;1.10;;
67063;SDS011;58476;48.072;11.970;2023-12-20T08:09:03;5.20;;;1.15;;
67063;SDS011;58476;48.072;11.970;2023-12-20T08:11:28;1.83;;;0.95;;
67063;SDS011;58476;48.072;11.970;2023-12-20T08:13:54;6.00;;;1.10;;
67063;SDS011;58476;48.072;11.970;2023-12-20T08:16:19;6.00;;;0.90;;
67063;SDS011;58476;48.072;11.970;2023-12-20T08:18:44;2.72;;;0.90;;
67063;SDS011;58476;48.072;11.970;2023-12-20T08:21:10;3.42;;;1.00;;
67063;SDS011;58476;48.072;11.970;2023-12-20T08:23:35;3.63;;;0.80;;
67063;SDS011;58476;48.072;11.970;2023-12-20T08:26:19;6.75;;;0.93;;
67063;SDS011;58476;48.072;11.970;2023-12-20T08:28:45;3.22;;;0.75;;
67063;SDS011;58476;48.072;11.970;2023-12-20T08:31:13;2.95;;;1.17;;
67063;SDS011;58476;48.072;11.970;2023-12-20T08:33:43;2.78;;;0.77;;
67063;SDS011;58476;48.072;11.970;2023-12-20T08:36:09;6.25;;;1.20;;
67063;SDS011;58476;48.072;11.970;2023-12-20T08:38:35;3.08;;;0.63;;
67063;SDS011;58476;48.072;11.970;2023-12-20T08:41:00;1.83;;;0.60;;
67063;SDS011;58476;48.072;11.970;2023-12-20T08:43:26;0.82;;;0.70;;
67063;SDS011;58476;48.072;11.970;2023-12-20T08:45:51;3.10;;;1.08;;
67063;SDS011;58476;48.072;11.970;2023-12-20T08:48:16;1.63;;;0.80;;
67063;SDS011;58476;48.072;11.970;2023-12-20T08:50:41;7.82;;;1.08;;
67063;SDS011;58476;48.072;11.970;2023-12-20T08:53:08;4.40;;;1.33;;
67063;SDS011;58476;48.072;11.970;2023-12-20T08:55:33;3.20;;;0.75;;
67063;SDS011;58476;48.072;11.970;2023-12-20T08:57:58;4.65;;;1.00;;
67063;SDS011;58476;48.072;11.970;2023-12-20T09:00:24;6.25;;;1.58;;
67063;SDS011;58476;48.072;11.970;2023-12-20T09:02:49;8.65;;;1.13;;
67063;SDS011;58476;48.072;11.970;2023-12-20T09:05:14;10.60;;;1.20;;
67063;SDS011;58476;48.072;11.970;2023-12-20T09:07:40;7.93;;;1.10;;
67063;SDS011;58476;48.072;11.970;2023-12-20T09:10:05;5.45;;;1.60;;
67063;SDS011;58476;48.072;11.970;2023-12-20T09:12:31;5.53;;;1.08;;
67063;SDS011;58476;48.072;11.970;2023-12-20T09:14:56;5.60;;;1.15;;
67063;SDS011;58476;48.072;11.970;2023-12-20T09:17:21;7.93;;;1.45;;
67063;SDS011;58476;48.072;11.970;2023-12-20T09:19:47;6.30;;;1.40;;
67063;SDS011;58476;48.072;11.970;2023-12-20T09:22:12;11.15;;;2.03;;
67063;SDS011;58476;48.072;11.970;2023-12-20T09:24:37;10.82;;;1.48;;
67063;SDS011;58476;48.072;11.970;2023-12-20T09:27:03;11.32;;;1.65;;
67063;SDS011;58476;48.072;11.970;2023-12-20T09:29:29;8.98;;;1.40;;
67063;SDS011;58476;48.072;11.970;2023-12-20T09:31:54;7.53;;;2.20;;
67063;SDS011;58476;48.072;11.970;2023-12-20T09:34:19;12.15;;;2.00;;
67063;SDS011;58476;48.072;11.970;2023-12-20T09:36:45;9.65;;;1.95;;
67063;SDS011;58476;48.072;11.970;2023-12-20T09:39:10;13.88;;;1.65;;
67063;SDS011;58476;48.072;11.970;2023-12-20T09:41:36;7.35;;;1.33;;
67063;SDS011;58476;48.072;11.970;2023-12-20T09:44:06;11.48;;;1.88;;
67063;SDS011;58476;48.072;11.970;2023-12-20T09:46:33;9.30;;;1.13;;
67063;SDS011;58476;48.072;11.970;2023-12-20T09:49:00;15.20;;;1.75;;
67063;SDS011;58476;48.072;11.970;2023-12-20T09:51:26;12.38;;;1.60;;
67063;SDS011;58476;48.072;11.970;2023-12-20T09:53:54;19.60;;;2.00;;
67063;SDS011;58476;48.072;11.970;2023-12-20T09:56:20;15.75;;;2.35;;
67063;SDS011;58476;48.072;11.970;2023-12-20T09:58:46;26.40;;;3.25;;
67063;SDS011;58476;48.072;11.970;2023-12-20T10:01:12;14.48;;;2.30;;
67063;SDS011;58476;48.072;11.970;2023-12-20T10:03:37;11.38;;;1.63;;
67063;SDS011;58476;48.072;11.970;2023-12-20T10:06:06;6.15;;;1.52;;
67063;SDS011;58476;48.072;11.970;2023-12-20T10:08:32;10.30;;;1.50;;
67063;SDS011;58476;48.072;11.970;2023-12-20T10:10:57;14.88;;;1.50;;
67063;SDS011;58476;48.072;11.970;2023-12-20T10:13:22;9.68;;;1.40;;
67063;SDS011;58476;48.072;11.970;2023-12-20T10:15:47;6.20;;;1.30;;
67063;SDS011;58476;48.072;11.970;2023-12-20T10:18:14;12.50;;;1.38;;
67063;SDS011;58476;48.072;11.970;2023-12-20T10:20:40;17.80;;;1.60;;
67063;SDS011;58476;48.072;11.970;2023-12-20T10:23:06;11.60;;;2.20;;
67063;SDS011;58476;48.072;11.970;2023-12-20T10:25:31;17.48;;;1.95;;
67063;SDS011;58476;48.072;11.970;2023-12-20T10:28:13;8.63;;;1.50;;
67063;SDS011;58476;48.072;11.970;2023-12-20T10:30:39;14.45;;;1.33;;
67063;SDS011;58476;48.072;11.970;2023-12-20T10:33:08;8.05;;;1.30;;
67063;SDS011;58476;48.072;11.970;2023-12-20T10:35:34;7.20;;;1.40;;
67063;SDS011;58476;48.072;11.970;2023-12-20T10:38:02;13.82;;;2.30;;
67063;SDS011;58476;48.072;11.970;2023-12-20T10:40:29;8.07;;;1.88;;
67063;SDS011;58476;48.072;11.970;2023-12-20T10:42:55;9.82;;;1.63;;
67063;SDS011;58476;48.072;11.970;2023-12-20T10:45:21;16.52;;;1.95;;
67063;SDS011;58476;48.072;11.970;2023-12-20T10:47:47;16.67;;;2.35;;
67063;SDS011;58476;48.072;11.970;2023-12-20T10:50:15;9.43;;;1.33;;
67063;SDS011;58476;48.072;11.970;2023-12-20T10:52:41;8.75;;;2.33;;
67063;SDS011;58476;48.072;11.970;2023-12-20T10:55:07;10.02;;;1.75;;
67063;SDS011;58476;48.072;11.970;2023-12-20T10:57:33;11.88;;;1.75;;
67063;SDS011;58476;48.072;11.970;2023-12-20T11:00:01;8.02;;;1.38;;
67063;SDS011;58476;48.072;11.970;2023-12-20T11:02:27;13.00;;;1.83;;
67063;SDS011;58476;48.072;11.970;2023-12-20T11:05:07;8.90;;;1.42;;
67063;SDS011;58476;48.072;11.970;2023-12-20T11:07:48;5.63;;;0.98;;
67063;SDS011;58476;48.072;11.970;2023-12-20T11:10:23;9.65;;;1.83;;
67063;SDS011;58476;48.072;11.970;2023-12-20T11:13:05;7.68;;;1.30;;
67063;SDS011;58476;48.072;11.970;2023-12-20T11:15:33;14.82;;;1.88;;
67063;SDS011;58476;48.072;11.970;2023-12-20T11:17:59;5.53;;;1.02;;
67063;SDS011;58476;48.072;11.970;2023-12-20T11:20:24;5.55;;;1.50;;
67063;SDS011;58476;48.072;11.970;2023-12-20T11:23:03;11.05;;;1.45;;
67063;SDS011;58476;48.072;11.970;2023-12-20T11:25:29;5.75;;;1.05;;
67063;SDS011;58476;48.072;11.970;2023-12-20T11:28:07;3.85;;;1.13;;
67063;SDS011;58476;48.072;11.970;2023-12-20T11:30:41;9.75;;;1.65;;
67063;SDS011;58476;48.072;11.970;2023-12-20T11:33:07;16.00;;;1.77;;
67063;SDS011;58476;48.072;11.970;2023-12-20T11:35:32;11.30;;;1.75;;
67063;SDS011;58476;48.072;11.970;2023-12-20T11:37:58;7.65;;;2.10;;
67063;SDS011;58476;48.072;11.970;2023-12-20T11:40:23;12.75;;;1.60;;
67063;SDS011;58476;48.072;11.970;2023-12-20T11:42:49;27.60;;;2.42;;
67063;SDS011;58476;48.072;11.970;2023-12-20T11:45:16;19.67;;;1.85;;
67063;SDS011;58476;48.072;11.970;2023-12-20T11:47:44;15.65;;;1.60;;
67063;SDS011;58476;48.072;11.970;2023-12-20T11:50:11;18.63;;;2.13;;
67063;SDS011;58476;48.072;11.970;2023-12-20T11:52:37;10.52;;;1.70;;
67063;SDS011;58476;48.072;11.970;2023-12-20T11:55:02;17.55;;;2.47;;
67063;SDS011;58476;48.072;11.970;2023-12-20T11:57:27;14.43;;;1.95;;
67063;SDS011;58476;48.072;11.970;2023-12-20T11:59:53;21.80;;;1.50;;
67063;SDS011;58476;48.072;11.970;2023-12-20T12:02:18;12.82;;;1.65;;
67063;SDS011;58476;48.072;11.970;2023-12-20T12:04:43;14.95;;;1.83;;
67063;SDS011;58476;48.072;11.970;2023-12-20T12:07:09;12.27;;;1.50;;
67063;SDS011;58476;48.072;11.970;2023-12-20T12:09:34;14.73;;;1.88;;
67063;SDS011;58476;48.072;11.970;2023-12-20T12:12:00;11.30;;;1.80;;
67063;SDS011;58476;48.072;11.970;2023-12-20T12:14:25;15.82;;;1.65;;
67063;SDS011;58476;48.072;11.970;2023-12-20T12:16:51;11.85;;;1.48;;
67063;SDS011;58476;48.072;11.970;2023-12-20T12:19:19;8.55;;;2.47;;
67063;SDS011;58476;48.072;11.970;2023-12-20T12:21:49;5.80;;;1.50;;
67063;SDS011;58476;48.072;11.970;2023-12-20T12:24:30;11.55;;;1.50;;
67063;SDS011;58476;48.072;11.970;2023-12-20T12:26:57;5.80;;;1.05;;
67063;SDS011;58476;48.072;11.970;2023-12-20T12:29:22;8.27;;;2.58;;
67063;SDS011;58476;48.072;11.970;2023-12-20T12:31:48;7.10;;;2.08;;
67063;SDS011;58476;48.072;11.970;2023-12-20T12:34:13;9.65;;;1.30;;
67063;SDS011;58476;48.072;11.970;2023-12-20T12:36:39;4.53;;;1.50;;
67063;SDS011;58476;48.072;11.970;2023-12-20T12:39:04;4.10;;;0.88;;
67063;SDS011;58476;48.072;11.970;2023-12-20T12:41:30;4.28;;;1.35;;
67063;SDS011;58476;48.072;11.970;2023-12-20T12:43:55;4.15;;;1.10;;
67063;SDS011;58476;48.072;11.970;2023-12-20T12:46:20;5.93;;;1.10;;
67063;SDS011;58476;48.072;11.970;2023-12-20T12:48:46;7.75;;;1.67;;
67063;SDS011;58476;48.072;11.970;2023-12-20T12:51:11;8.45;;;1.45;;
67063;SDS011;58476;48.072;11.970;2023-12-20T12:53:37;3.88;;;1.35;;
67063;SDS011;58476;48.072;11.970;2023-12-20T12:56:02;3.70;;;1.60;;
67063;SDS011;58476;48.072;11.970;2023-12-20T12:58:27;4.03;;;1.40;;
67063;SDS011;58476;48.072;11.970;2023-12-20T13:00:53;5.13;;;1.30;;
67063;SDS011;58476;48.072;11.970;2023-12-20T13:03:18;4.40;;;1.45;;
67063;SDS011;58476;48.072;11.970;2023-12-20T13:05:44;4.18;;;1.20;;
67063;SDS011;58476;48.072;11.970;2023-12-20T13:08:09;4.60;;;1.40;;
67063;SDS011;58476;48.072;11.970;2023-12-20T13:10:34;8.18;;;1.85;;
67063;SDS011;58476;48.072;11.970;2023-12-20T13:13:00;2.42;;;1.30;;
67063;SDS011;58476;48.072;11.970;2023-12-20T13:15:25;2.65;;;1.23;;
67063;SDS011;58476;48.072;11.970;2023-12-20T13:17:50;3.15;;;1.15;;
67063;SDS011;58476;48.072;11.970;2023-12-20T13:20:16;1.42;;;1.20;;
67063;SDS011;58476;48.072;11.970;2023-12-20T13:22:41;3.35;;;1.10;;
67063;SDS011;58476;48.072;11.970;2023-12-20T13:25:06;4.05;;;1.33;;
67063;SDS011;58476;48.072;11.970;2023-12-20T13:27:32;2.33;;;0.95;;
67063;SDS011;58476;48.072;11.970;2023-12-20T13:29:57;3.75;;;1.20;;
67063;SDS011;58476;48.072;11.970;2023-12-20T13:32:23;2.25;;;1.33;;
67063;SDS011;58476;48.072;11.970;2023-12-20T13:34:48;5.75;;;1.60;;
67063;SDS011;58476;48.072;11.970;2023-12-20T13:37:13;6.88;;;1.55;;
67063;SDS011;58476;48.072;11.970;2023-12-20T13:39:39;5.35;;;1.00;;
67063;SDS011;58476;48.072;11.970;2023-12-20T13:42:04;1.27;;;1.05;;
67063;SDS011;58476;48.072;11.970;2023-12-20T13:44:30;3.25;;;1.23;;
67063;SDS011;58476;48.072;11.970;2023-12-20T13:46:55;5.43;;;1.58;;
67063;SDS011;58476;48.072;11.970;2023-12-20T13:49:20;2.83;;;1.23;;
67063;SDS011;58476;48.072;11.970;2023-12-20T13:51:46;5.82;;;1.40;;
67063;SDS011;58476;48.072;11.970;2023-12-20T13:54:11;4.35;;;1.40;;
67063;SDS011;58476;48.072;11.970;2023-12-20T13:56:36;6.90;;;1.70;;
67063;SDS011;58476;48.072;11.970;2023-12-20T13:59:01;5.88;;;1.38;;
67063;SDS011;58476;48.072;11.970;2023-12-20T14:01:27;3.22;;;1.40;;
67063;SDS011;58476;48.072;11.970;2023-12-20T14:03:52;3.05;;;1.20;;
67063;SDS011;58476;48.072;11.970;2023-12-20T14:06:17;5.28;;;1.15;;
67063;SDS011;58476;48.072;11.970;2023-12-20T14:08:43;4.28;;;1.17;;
67063;SDS011;58476;48.072;11.970;2023-12-20T14:11:08;2.78;;;1.20;;
67063;SDS011;58476;48.072;11.970;2023-12-20T14:13:34;2.90;;;1.27;;
67063;SDS011;58476;48.072;11.970;2023-12-20T14:15:59;9.68;;;1.95;;
67063;SDS011;58476;48.072;11.970;2023-12-20T14:18:24;3.90;;;1.23;;
67063;SDS011;58476;48.072;11.970;2023-12-20T14:20:50;4.13;;;1.50;;
67063;SDS011;58476;48.072;11.970;2023-12-20T14:23:15;4.70;;;1.35;;
67063;SDS011;58476;48.072;11.970;2023-12-20T14:25:41;3.88;;;1.20;;